Latest Weather Observations for Wagga Wagga

IDN60801

Issued at 1:34 pm EDT Sunday 21 December 2014 (issued every 30 minutes, with the page automatically refreshed every 10 minutes)

About weather observations | Map of weather stations | Latest weather observations for NSW | Other Formats
Station Details ID: 072150 Name: WAGGA WAGGA AMO Lat: -35.16 Lon: 147.46 Height: 212.0 m
Data from the previous 72 hours. | See also: Recent months at Wagga Wagga
Date/Time
EDT
Temp
°C
App
Temp
°C
Dew
Point
Rel
Hum
%
Delta-T
°C
Wind Press
QNH
hPa
Press
MSL
hPa
Rain
since 9 am
mm
Dir
 
Spd
km/h
Gust
km/h
Spd
kts
Gust
kts
21/01:00pm 31.2 27.0 5.8 20 13.6 WSW 17 26 9 14 1014.5 1013.6 0.0
21/12:30pm 31.2 29.0 7.7 23 13.0 ENE 9 20 5 11 1014.9 1014.1 0.0
21/11:30am 28.5 25.0 8.9 29 10.9 NNW 17 28 9 15 1015.8 1015.0 0.0
21/10:30am 27.1 24.4 10.3 35 9.5 NE 15 24 8 13 1016.1 1015.3 0.0
21/10:00am 26.3 24.5 11.0 38 8.7 NE 11 19 6 10 1016.6 1015.8 0.0
21/09:30am 24.2 22.4 12.0 46 7.0 NE 13 19 7 10 1016.8 1016.0 0.0
21/09:00am 23.3 20.6 11.7 48 6.6 ENE 17 22 9 12 1016.7 1015.9 0.0
21/08:00am 21.0 18.5 12.2 57 5.0 ENE 17 24 9 13 1016.0 1015.2 0.0
21/07:30am 19.9 18.8 12.1 60 4.4 ENE 9 15 5 8 1016.0 1015.2 0.0
21/07:00am 19.3 18.7 12.2 63 4.0 E 7 13 4 7 1015.7 1014.9 0.0
21/06:30am 16.5 15.4 11.8 74 2.6 SE 9 13 5 7 1015.3 1014.5 0.0
21/05:30am 17.8 15.8 11.6 67 3.4 E 13 17 7 9 1014.8 1013.9 0.0
21/05:00am 18.1 16.5 11.6 66 3.6 ESE 11 13 6 7 1014.6 1013.7 0.0
21/04:30am 17.4 15.8 11.6 69 3.2 E 11 13 6 7 1014.4 1013.5 0.0
21/04:00am 15.0 14.0 9.0 67 3.1 ESE 4 9 2 5 1014.3 1013.4 0.0
21/03:30am 18.5 16.4 9.7 56 4.7 E 11 15 6 8 1014.2 1013.3 0.0
21/03:00am 18.5 15.3 8.3 51 5.3 E 15 17 8 9 1014.2 1013.3 0.0
21/02:30am 19.2 15.7 7.3 46 6.1 E 15 17 8 9 1014.4 1013.5 0.0
21/02:00am 18.7 15.4 6.3 44 6.2 ESE 13 15 7 8 1014.4 1013.5 0.0
21/01:30am 18.4 15.4 6.2 45 6.1 E 11 17 6 9 1014.5 1013.6 0.0
21/01:00am 18.5 16.4 6.6 45 6.0 ESE 7 9 4 5 1014.2 1013.3 0.0
21/12:30am 19.2 17.6 7.8 47 5.9 E 6 7 3 4 1014.5 1013.6 0.0
21/12:00am 20.3 17.3 6.0 39 7.2 E 11 13 6 7 1014.6 1013.7 0.0
 
Date/Time
EDT
Temp
°C
App
Temp
°C
Dew
Point
Rel
Hum
%
Delta-T
°C
Wind Press
QNH
hPa
Press
MSL
hPa
Rain
since 9 am
mm
Dir
 
Spd
km/h
Gust
km/h
Spd
kts
Gust
kts
20/11:30pm 20.1 18.0 6.8 42 6.8 NE 7 9 4 5 1014.6 1013.7 0.0
20/11:00pm 20.9 19.8 6.9 40 7.2 N 2 6 1 3 1014.5 1013.6 0.0
20/10:30pm 21.1 19.4 6.1 37 7.6 SSW 4 7 2 4 1014.3 1013.4 0.0
20/10:00pm 20.4 18.1 7.5 43 6.7 SSW 9 11 5 6 1014.4 1013.5 0.0
20/09:00pm 24.2 21.6 4.2 27 10.0 SSW 7 9 4 5 1013.7 1012.9 0.0
20/08:30pm 25.3 22.4 4.6 26 10.5 SSW 9 11 5 6 1013.6 1012.8 0.0
20/08:00pm 27.8 24.2 2.7 20 12.5 SSW 11 15 6 8 1013.3 1012.5 0.0
20/07:30pm 28.9 24.8 2.5 18 13.2 S 13 19 7 10 1013.2 1012.4 0.0
20/07:00pm 29.7 25.6 2.4 17 13.7 WSW 13 17 7 9 1012.9 1012.1 0.0
20/06:30pm 30.2 27.3 2.4 17 14.0 SSW 7 13 4 7 1012.7 1011.9 0.0
20/05:30pm 29.8 25.7 2.3 17 13.8 S 13 24 7 13 1012.5 1011.7 0.0
20/05:00pm 30.1 25.7 2.5 17 13.9 S 15 26 8 14 1012.7 1011.9 0.0
20/04:30pm 29.8 26.4 4.0 19 13.3 SSW 11 26 6 14 1013.0 1012.2 0.0
20/04:00pm 29.5 27.1 5.4 21 12.7 NW 7 9 4 5 1013.4 1012.6 0.0
20/03:30pm 29.2 26.2 4.2 20 12.9 NW 9 19 5 10 1013.8 1013.0 0.0
20/03:00pm 28.0 24.7 4.8 22 12.0 WSW 11 17 6 9 1014.4 1013.5 0.0
20/02:30pm 28.5 25.8 5.4 23 12.1 ESE 9 15 5 8 1014.8 1013.9 0.0
20/02:00pm 26.8 23.1 4.5 24 11.4 W 13 22 7 12 1015.3 1014.5 0.0
20/01:30pm 26.4 22.4 5.0 25 11.0 W 15 26 8 14 1015.8 1015.0 0.0
20/01:00pm 26.2 23.5 5.8 27 10.6 ESE 9 13 5 7 1016.1 1015.3 0.0
20/12:30pm 25.1 22.6 6.6 30 9.7 SSW 9 13 5 7 1016.5 1015.7 0.0
20/12:00pm 24.1 21.4 5.8 30 9.4 W 9 17 5 9 1016.8 1016.0 0.0
20/11:30am 23.9 21.5 6.9 33 8.9 NW 9 13 5 7 1017.1 1016.3 0.0
20/11:00am 23.1 21.1 7.0 35 8.4 WNW 7 17 4 9 1017.2 1016.4 0.0
20/10:30am 21.9 19.8 8.1 41 7.3 NNW 9 17 5 9 1017.4 1016.6 0.0
20/10:00am 21.5 19.1 8.8 44 6.8 NE 11 17 6 9 1017.6 1016.8 0.0
20/09:30am 20.0 17.2 8.4 47 6.1 NE 13 20 7 11 1017.6 1016.8 0.0
20/09:00am 18.9 15.8 8.8 52 5.3 ENE 15 20 8 11 1017.5 1016.7 0.0
20/08:30am 18.0 14.0 8.1 52 5.1 ENE 19 24 10 13 1017.4 1016.6 0.0
20/08:00am 16.8 14.3 8.0 56 4.5 NE 11 15 6 8 1017.3 1016.5 0.0
20/07:30am 15.8 13.2 7.9 59 4.0 ENE 11 13 6 7 1016.9 1016.1 0.0
20/07:00am 14.7 13.7 7.2 61 3.7 E 2 6 1 3 1016.6 1015.8 0.0
20/06:30am 13.3 10.8 6.5 63 3.3 ESE 9 9 5 5 1016.4 1015.6 0.0
20/06:00am 12.1 9.4 5.5 64 3.1 ESE 9 9 5 5 1016.2 1015.4 0.0
20/05:30am 11.9 8.5 4.2 59 3.5 ESE 11 11 6 6 1015.9 1015.1 0.0
20/05:00am 12.0 9.4 4.1 58 3.6 E 7 9 4 5 1015.9 1015.1 0.0
20/04:30am 12.1 9.4 3.7 56 3.8 E 7 9 4 5 1015.7 1014.9 0.0
20/04:00am 12.2 8.8 3.8 56 3.8 E 11 15 6 8 1015.6 1014.8 0.0
20/03:30am 12.6 9.9 3.5 54 4.1 ESE 7 9 4 5 1015.5 1014.7 0.0
20/03:00am 12.6 9.6 4.3 57 3.8 E 9 9 5 5 1015.5 1014.7 0.0
20/02:30am 13.0 10.4 4.1 54 4.1 ENE 7 9 4 5 1015.7 1014.9 0.0
20/02:00am 13.5 10.8 3.6 51 4.5 ENE 7 9 4 5 1015.8 1015.0 0.0
20/01:30am 14.8 13.4 3.8 47 5.1 CALM 0 0 0 0 1015.9 1015.1 0.0
20/01:00am 14.5 12.0 3.6 48 5.0 ENE 6 9 3 5 1016.0 1015.2 0.0
20/12:30am 15.2 11.9 2.6 42 5.7 W 9 13 5 7 1016.1 1015.3 0.0
20/12:00am 15.5 11.9 2.7 42 5.8 WSW 11 15 6 8 1016.2 1015.4 0.0
 
Date/Time
EDT
Temp
°C
App
Temp
°C
Dew
Point
Rel
Hum
%
Delta-T
°C
Wind Press
QNH
hPa
Press
MSL
hPa
Rain
since 9 am
mm
Dir
 
Spd
km/h
Gust
km/h
Spd
kts
Gust
kts
19/11:30pm 15.3 10.9 2.7 42 5.7 SW 15 19 8 10 1016.3 1015.5 0.0
19/11:00pm 16.9 12.7 1.8 36 6.8 SW 13 19 7 10 1016.5 1015.7 0.0
19/10:30pm 17.3 12.7 1.5 34 7.1 SW 15 22 8 12 1016.3 1015.5 0.0
19/10:00pm 18.6 13.6 1.1 31 7.9 SW 17 26 9 14 1016.0 1015.2 0.0
19/09:30pm 18.7 14.4 0.9 30 8.0 SW 13 17 7 9 1015.7 1014.9 0.0
19/09:00pm 19.3 14.5 -0.1 27 8.6 SW 15 19 8 10 1015.3 1014.5 0.0
19/08:30pm 20.9 15.2 -0.8 23 9.6 SW 19 26 10 14 1015.1 1014.3 0.0
19/08:00pm 22.1 15.0 -1.0 21 10.3 WSW 26 32 14 17 1014.9 1014.1 0.0
19/07:30pm 23.3 15.7 -2.1 18 11.2 WSW 28 33 15 18 1014.4 1013.5 0.0
19/07:00pm 23.9 16.7 -2.4 17 11.6 SW 26 35 14 19 1013.9 1013.1 0.0
19/06:30pm 24.5 17.1 -3.3 15 12.1 WSW 26 37 14 20 1013.6 1012.8 0.0
19/06:00pm 24.7 18.1 -3.2 15 12.2 WSW 22 37 12 20 1013.1 1012.3 0.0
19/05:30pm 25.1 17.3 -4.1 14 12.6 SW 28 39 15 21 1012.9 1012.1 0.0
19/05:00pm 25.3 17.4 -4.6 13 12.8 WSW 28 41 15 22 1013.0 1012.2 0.0
19/04:30pm 25.0 17.0 -6.0 12 12.9 WSW 28 37 15 20 1013.1 1012.3 0.0
19/04:00pm 25.3 18.8 -5.7 12 13.0 SW 20 37 11 20 1013.0 1012.2 0.0
19/03:30pm 24.9 17.2 -6.3 12 12.9 SW 26 43 14 23 1013.2 1012.4 0.0
19/03:00pm 24.5 16.8 -6.4 12 12.7 WSW 26 37 14 20 1013.4 1012.6 0.0
19/02:30pm 24.5 18.1 -4.8 14 12.4 WSW 20 37 11 20 1013.5 1012.7 0.0
19/02:00pm 24.3 17.0 -5.9 13 12.5 WSW 24 39 13 21 1013.7 1012.9 0.0
19/01:43pm 24.0 16.0 -6.2 13 12.4 SW 28 46 15 25 1013.7 1012.9 0.0
19/01:30pm 24.5 17.1 -7.0 12 12.8 SW 24 37 13 20 1013.8 1013.0 0.0
19/01:00pm 23.6 16.3 -6.3 13 12.2 WSW 24 35 13 19 1014.0 1013.2 0.0
19/12:30pm 22.6 15.3 -6.4 14 11.7 WSW 24 35 13 19 1014.2 1013.3 0.0
19/12:00pm 22.1 14.9 -5.1 16 11.2 WSW 24 35 13 19 1014.2 1013.3 0.0
19/11:30am 21.3 14.2 -4.7 17 10.7 WSW 24 32 13 17 1014.2 1013.3 0.0
19/11:00am 20.8 14.0 -1.8 22 9.8 WSW 24 33 13 18 1014.5 1013.6 0.0
19/10:30am 20.1 13.8 1.4 28 8.6 WSW 24 35 13 19 1014.7 1013.8 0.0
19/10:00am 18.6 13.3 3.1 35 7.3 WSW 20 33 11 18 1014.6 1013.7 0.0
19/09:30am 18.0 12.0 3.3 37 6.9 WSW 24 30 13 16 1014.6 1013.7 0.0
19/09:00am 17.2 11.6 5.5 46 5.7 W 24 30 13 16 1014.6 1013.7 0.0
19/08:30am 16.3 11.7 6.4 52 4.9 W 20 28 11 15 1014.3 1013.4 0.0
19/08:00am 14.2 10.6 6.6 60 3.7 W 15 22 8 12 1014.2 1013.3 0.0
19/07:30am 13.5 10.3 6.7 63 3.3 W 13 17 7 9 1013.9 1013.1 0.0
19/07:00am 12.5 10.1 6.9 68 2.7 WNW 9 13 5 7 1013.3 1012.5 0.0
19/06:30am 11.7 8.5 6.9 72 2.3 WSW 13 15 7 8 1012.9 1012.1 0.0
19/06:00am 11.0 7.8 6.8 75 2.0 W 13 15 7 8 1012.3 1011.5 0.0
19/05:30am 10.9 7.7 6.9 76 1.9 WNW 13 13 7 7 1011.9 1011.1 0.0
19/05:00am 11.7 8.5 6.9 72 2.3 WNW 13 15 7 8 1011.5 1010.7 0.0
19/04:30am 11.9 8.8 7.2 73 2.3 WNW 13 15 7 8 1011.2 1010.4 0.0
19/04:00am 12.9 10.1 7.0 67 2.9 NW 11 13 6 7 1011.1 1010.3 0.0
19/03:30am 13.0 10.5 6.4 64 3.2 NW 9 11 5 6 1010.9 1010.1 0.0
19/03:00am 14.5 10.3 5.5 54 4.3 SW 17 22 9 12 1010.7 1009.8 0.0
19/02:30am 15.3 9.6 5.0 50 4.9 SW 24 32 13 17 1010.7 1009.8 0.0
19/02:00am 15.6 11.0 5.5 51 4.9 SW 19 26 10 14 1010.8 1010.0 0.0
19/01:30am 16.2 11.6 5.5 49 5.2 SSW 19 30 10 16 1010.8 1010.0 0.0
19/01:00am 16.1 11.2 5.1 48 5.3 SW 20 33 11 18 1010.7 1009.8 0.0
19/12:30am 17.3 11.5 4.6 43 6.1 SSW 24 30 13 16 1010.8 1010.0 0.0
19/12:00am 18.3 10.7 3.8 38 6.9 SW 33 50 18 27 1010.5 1009.6 0.0
 
Date/Time
EDT
Temp
°C
App
Temp
°C
Dew
Point
Rel
Hum
%
Delta-T
°C
Wind Press
QNH
hPa
Press
MSL
hPa
Rain
since 9 am
mm
Dir
 
Spd
km/h
Gust
km/h
Spd
kts
Gust
kts
18/11:55pm 18.3 11.3 4.1 39 6.8 SW 30 50 16 27 1010.3 1009.4 0.0
18/11:30pm 18.7 13.0 5.0 40 6.7 SSW 24 33 13 18 1010.3 1009.4 0.0
18/11:00pm 19.4 12.8 4.4 37 7.3 SSW 28 39 15 21 1010.3 1009.4 0.0
18/10:30pm 20.6 12.8 2.7 30 8.5 SW 33 46 18 25 1009.9 1009.0 0.0
18/10:00pm 22.2 14.5 -0.3 22 10.2 SW 30 39 16 21 1009.4 1008.5 0.0
18/09:30pm 22.7 15.8 0.0 22 10.4 WSW 26 35 14 19 1008.7 1007.9 0.0
18/09:00pm 23.5 14.8 -0.7 20 11.0 SW 35 48 19 26 1008.1 1007.3 0.0
18/08:30pm 24.3 15.9 -0.9 19 11.5 WSW 33 46 18 25 1007.6 1006.8 0.0
18/08:00pm 25.7 16.9 -1.0 17 12.3 WSW 35 46 19 25 1007.1 1006.3 0.0
18/07:30pm 26.8 17.1 -2.3 14 13.2 WSW 39 52 21 28 1006.5 1005.6 0.0
18/07:02pm 27.9 18.5 -3.2 13 14.0 WSW 37 56 20 30 1006.2 1005.3 0.0
18/07:00pm 27.9 18.0 -3.7 12 14.1 WSW 39 56 21 30 1006.1 1005.2 0.0
18/06:53pm 27.7 18.6 -3.7 12 13.9 WSW 35 56 19 30 1006.0 1005.1 0.0
18/06:30pm 28.0 18.9 -3.9 12 14.1 WSW 35 48 19 26 1005.8 1004.9 0.0
18/06:00pm 28.2 19.0 -4.9 11 14.5 W 35 48 19 26 1005.5 1004.6 0.0
18/05:41pm 28.9 20.5 -6.1 10 15.0 W 30 48 16 26 1005.0 1004.1 0.0
18/05:30pm 28.8 19.9 -7.1 9 15.1 W 32 44 17 24 1005.1 1004.2 0.0
18/05:00pm 29.3 19.6 -9.3 7 15.8 W 35 52 19 28 1005.1 1004.2 0.0
18/04:30pm 30.0 19.9 -10.9 6 16.3 WNW 37 52 20 28 1005.0 1004.1 0.0
18/04:03pm 29.9 21.0 -11.4 6 16.3 W 30 50 16 27 1005.0 1004.1 0.0
18/04:00pm 30.3 21.1 -11.2 6 16.6 W 32 46 17 25 1005.0 1004.1 0.0
18/03:50pm 30.3 20.1 -11.2 6 16.5 W 37 56 20 30 1005.1 1004.2 0.0
18/03:30pm 30.5 21.8 -9.5 7 16.4 WSW 30 46 16 25 1005.3 1004.4 0.0
18/03:00pm 29.7 21.6 -7.0 9 15.7 W 28 50 15 27 1005.4 1004.5 0.0
18/02:56pm 30.6 21.7 -7.7 8 16.2 W 32 50 17 27 1005.5 1004.6 0.0
18/02:30pm 28.9 19.9 -8.0 8 15.3 WSW 32 44 17 24 1005.7 1004.8 0.0
18/02:06pm 30.2 23.8 -4.7 10 15.5 W 20 41 11 22 1006.1 1005.2 0.0
18/02:00pm 29.3 23.3 -3.2 12 14.8 WNW 19 39 10 21 1006.2 1005.3 0.0

Other Formats:

Comma delimited format used in spreadsheet applications
http://www.bom.gov.au/fwo/IDN60801/IDN60801.94910.axf

JavaScript Object Notation format (JSON) in row-major order
http://www.bom.gov.au/fwo/IDN60801/IDN60801.94910.json